Wachapreague, Virginia
Current Conditions -  °F | °C
As of 11:15 PM on Tuesday 25 Nov 2014 (Local Time) from KMFV Reporting Station
Moderate Rain Moderate Rain  
Wind Chill: 50°   Ceiling: 6500
Heat Index: 50°   Visibility: 7mi
Dew Point: 45°   Wind: 3mph
Humidity: 82%   Direction: 60°ENE
Pressure: 30.15"   Gusts: NA
Location:  37.6°N, 75.69°W
Report Text: KMFV 260415Z AUTO 06003KT 7SM RA BKN065 BKN075 OVC080 10/07 A3015 RMK AO2 P0002
Loading
Personal Weather Stations






























Interactive Weather Map New forecast layout! Learn more

10-Day Weather Forecast

Advertisements
Track Severe Weather on mobile